Oval Lp No.11 — JL6306 — position and weather

sailwx.info

Track history (hours):
 
Tides and Currents Weather Stations Pressure Air Temp Water Temp Dewpoint Dewpoint Depression Visibility Wind Speed Wind Dir Waves Ship Positions

Oval Lp No.11

Last reported at 2017-Feb-26 05:13 UTC. Time now 2017-Feb-28 01:36 UTC.
Position N 34°03' E 134°60'.

Length 67 m; draft 3.6 m.

Type: Ship (hazmat cat A). MMSI: 431500366.

Date/timePositionNaut miles runAvg speedWind from/ knotsBaromVisibWave heightAir tempDewpointWater temp
2017-Feb-26 05:13N 34°03' E 134°60'2411.9
2017-Feb-26 03:14N 34°26' E 135°07'812.2
2017-Feb-26 02:33N 34°31' E 135°15'10 9.7
2017-Feb-26 01:33N 34°35' E 135°26'0 0.1
2017-Feb-25 22:33N 34°35' E 135°26'2 1.1
2017-Feb-25 20:23N 34°36' E 135°23'0 0.1
2017-Feb-25 19:29N 34°36' E 135°23'0 0.0
2017-Feb-25 18:29N 34°36' E 135°23'0 0.0
2017-Feb-25 17:29N 34°36' E 135°23'0 0.0
2017-Feb-25 16:29N 34°36' E 135°23'0 0.0
2017-Feb-25 15:29N 34°36' E 135°23'0 0.0
2017-Feb-25 14:17N 34°36' E 135°23'0 0.0
2017-Feb-25 13:29N 34°36' E 135°23'0 0.0
2017-Feb-25 12:29N 34°36' E 135°23'0 0.0
2017-Feb-25 11:29N 34°36' E 135°23'0 0.0
2017-Feb-25 10:05N 34°36' E 135°23'0 0.0
2017-Feb-25 09:17N 34°36' E 135°23'0 0.0
2017-Feb-25 08:23N 34°36' E 135°23'2 2.5
2017-Feb-25 07:33N 34°35' E 135°25'1 0.8
2017-Feb-25 06:32N 34°34' E 135°26'0 0.0
2017-Feb-25 05:32N 34°34' E 135°26'0 0.0
2017-Feb-25 04:33N 34°34' E 135°26'3 0.7
2017-Feb-25 00:04N 34°32' E 135°25'2 3.0
2017-Feb-24 23:33N 34°32' E 135°23'1 1.3
2017-Feb-24 22:33N 34°32' E 135°22'0 0.0
2017-Feb-24 21:33N 34°32' E 135°22'0 0.0
2017-Feb-24 20:33N 34°32' E 135°22'0 0.0
2017-Feb-24 19:33N 34°32' E 135°22'0 0.0
2017-Feb-24 18:27N 34°32' E 135°22'0 0.0
2017-Feb-24 17:33N 34°32' E 135°22'0 0.0
2017-Feb-24 16:33N 34°32' E 135°22'0 0.0
2017-Feb-24 15:33N 34°32' E 135°22'0 0.0
2017-Feb-24 14:33N 34°32' E 135°22'0 0.0
2017-Feb-24 13:33N 34°32' E 135°22'0 0.0
2017-Feb-24 12:33N 34°32' E 135°22'0 0.0
2017-Feb-24 11:33N 34°32' E 135°22'0 0.0
2017-Feb-24 10:21N 34°32' E 135°22'0 0.0
2017-Feb-24 09:33N 34°32' E 135°22'0 0.0
2017-Feb-24 08:27N 34°32' E 135°22'0 0.0
2017-Feb-24 07:03N 34°32' E 135°22'0 0.0
2017-Feb-24 05:33N 34°32' E 135°22'0 0.0
2017-Feb-24 04:27N 34°32' E 135°22'0 0.0
2017-Feb-24 03:21N 34°32' E 135°22'4 4.9
2017-Feb-24 02:33N 34°35' E 135°26'0 0.3
2017-Feb-24 01:31N 34°34' E 135°26'0 0.0
2017-Feb-24 00:31N 34°34' E 135°26'0 0.0
2017-Feb-23 23:33N 34°34' E 135°26'6 6.3
2017-Feb-23 22:33N 34°33' E 135°18'1211.4
2017-Feb-23 21:32N 34°25' E 135°08'1211.4
2017-Feb-23 20:29N 34°15' E 134°60'1011.2
2017-Feb-23 19:33N 34°05' E 135°01'  
2017-Feb-21 06:25N 34°03' E 134°59'2412.1
2017-Feb-21 04:25N 34°27' E 135°07'1112.7
2017-Feb-21 03:33N 34°35' E 135°16'6 6.2
2017-Feb-21 02:33N 34°39' E 135°21'0 0.0
2017-Feb-21 01:33N 34°39' E 135°21'0 0.0
2017-Feb-21 00:33N 34°39' E 135°21'0 0.0
2017-Feb-20 23:33N 34°39' E 135°21'0 0.0
2017-Feb-20 22:32N 34°39' E 135°21'0 0.1
2017-Feb-20 21:33N 34°39' E 135°21'0 0.0
2017-Feb-20 20:33N 34°39' E 135°21'0 0.1
2017-Feb-20 19:33N 34°39' E 135°21'0 0.0
2017-Feb-20 18:32N 34°39' E 135°21'0 0.0
2017-Feb-20 17:33N 34°39' E 135°21'0 0.0
2017-Feb-20 16:33N 34°39' E 135°21'0 0.0
2017-Feb-20 15:33N 34°39' E 135°21'0 0.0
2017-Feb-20 14:33N 34°39' E 135°21'0 0.0
2017-Feb-20 13:33N 34°39' E 135°21'0 0.0
2017-Feb-20 12:33N 34°39' E 135°21'0 0.0
2017-Feb-20 11:33N 34°39' E 135°21'0 0.1
2017-Feb-20 10:33N 34°39' E 135°21'0 0.0
2017-Feb-20 09:33N 34°39' E 135°21'0 0.0
2017-Feb-20 08:33N 34°39' E 135°21'0 0.0
2017-Feb-20 07:33N 34°39' E 135°21'0 0.0
2017-Feb-20 06:32N 34°39' E 135°21'0 0.1
2017-Feb-20 05:33N 34°39' E 135°21'0 0.1
2017-Feb-20 04:33N 34°39' E 135°21'0 0.0
2017-Feb-20 03:33N 34°39' E 135°21'5 4.5
2017-Feb-20 02:33N 34°36' E 135°25'2 1.5
2017-Feb-20 01:22N 34°34' E 135°26'0 0.0
2017-Feb-20 00:22N 34°34' E 135°26'0 0.0
2017-Feb-19 23:22N 34°34' E 135°26'3 3.1
2017-Feb-19 22:32N 34°36' E 135°23'0 0.0
2017-Feb-19 21:08N 34°36' E 135°23'0 0.1
2017-Feb-19 20:14N 34°36' E 135°23'0 0.0
2017-Feb-19 19:32N 34°36' E 135°23'0 0.0
2017-Feb-19 17:32N 34°36' E 135°23'0 0.0
2017-Feb-19 16:32N 34°36' E 135°23'0 0.0
2017-Feb-19 15:32N 34°36' E 135°23'0 0.0
2017-Feb-19 14:26N 34°36' E 135°23'0 0.0
2017-Feb-19 13:14N 34°36' E 135°23'0 0.0
2017-Feb-19 12:26N 34°36' E 135°23'0 0.0
2017-Feb-19 11:20N 34°36' E 135°23'2 2.8
2017-Feb-19 10:33N 34°34' E 135°21'1211.9
2017-Feb-19 09:31N 34°26' E 135°10'1111.6
2017-Feb-19 08:32N 34°18' E 135°00'1111.0
2017-Feb-19 07:33N 34°07' E 135°01'228 9.0
2017-Feb-18 06:21N 35°02' E 139°30'911.7
2017-Feb-18 05:33N 35°06' E 139°40'1111.0
2017-Feb-18 04:33N 35°16' E 139°46'1010.2
2017-Feb-18 03:33N 35°26' E 139°45'1212.2
2017-Feb-18 02:33N 35°32' E 139°58'5 5.2
2017-Feb-18 01:31N 35°33' E 140°05'0 0.0
2017-Feb-18 00:19N 35°33' E 140°05'0 0.0
2017-Feb-17 23:28N 35°33' E 140°05'0 0.0
2017-Feb-17 22:28N 35°33' E 140°05'1 0.1
2017-Feb-17 07:33N 35°33' E 140°05'1111.5
2017-Feb-17 06:33N 35°28' E 139°52'1211.8
2017-Feb-17 05:33N 35°19' E 139°44'1111.2
2017-Feb-17 04:33N 35°07' E 139°46'1312.3
2017-Feb-17 03:32N 34°59' E 139°34'  
Track history (hours):
 
Tides and Currents Weather Stations Pressure Air Temp Water Temp Dewpoint Dewpoint Depression Visibility Wind Speed Wind Dir Waves Ship Positions

Oval Lp No.11

Last reported at 2017-Feb-26 05:13 UTC. Time now 2017-Feb-28 01:36 UTC.
Position N 34°03' E 134°60'.

Length 67 m; draft 3.6 m.

Type: Ship (hazmat cat A). MMSI: 431500366.

Date/timePositionNaut miles runAvg speedWind from/ knotsBaromVisibWave heightAir tempDewpointWater temp
2017-Feb-26 05:13N 34°03' E 134°60'2411.9
2017-Feb-26 03:14N 34°26' E 135°07'812.2
2017-Feb-26 02:33N 34°31' E 135°15'10 9.7
2017-Feb-26 01:33N 34°35' E 135°26'0 0.1
2017-Feb-25 22:33N 34°35' E 135°26'2 1.1
2017-Feb-25 20:23N 34°36' E 135°23'0 0.1
2017-Feb-25 19:29N 34°36' E 135°23'0 0.0
2017-Feb-25 18:29N 34°36' E 135°23'0 0.0
2017-Feb-25 17:29N 34°36' E 135°23'0 0.0
2017-Feb-25 16:29N 34°36' E 135°23'0 0.0
2017-Feb-25 15:29N 34°36' E 135°23'0 0.0
2017-Feb-25 14:17N 34°36' E 135°23'0 0.0
2017-Feb-25 13:29N 34°36' E 135°23'0 0.0
2017-Feb-25 12:29N 34°36' E 135°23'0 0.0
2017-Feb-25 11:29N 34°36' E 135°23'0 0.0
2017-Feb-25 10:05N 34°36' E 135°23'0 0.0
2017-Feb-25 09:17N 34°36' E 135°23'0 0.0
2017-Feb-25 08:23N 34°36' E 135°23'2 2.5
2017-Feb-25 07:33N 34°35' E 135°25'1 0.8
2017-Feb-25 06:32N 34°34' E 135°26'0 0.0
2017-Feb-25 05:32N 34°34' E 135°26'0 0.0
2017-Feb-25 04:33N 34°34' E 135°26'3 0.7
2017-Feb-25 00:04N 34°32' E 135°25'2 3.0
2017-Feb-24 23:33N 34°32' E 135°23'1 1.3
2017-Feb-24 22:33N 34°32' E 135°22'0 0.0
2017-Feb-24 21:33N 34°32' E 135°22'0 0.0
2017-Feb-24 20:33N 34°32' E 135°22'0 0.0
2017-Feb-24 19:33N 34°32' E 135°22'0 0.0
2017-Feb-24 18:27N 34°32' E 135°22'0 0.0
2017-Feb-24 17:33N 34°32' E 135°22'0 0.0
2017-Feb-24 16:33N 34°32' E 135°22'0 0.0
2017-Feb-24 15:33N 34°32' E 135°22'0 0.0
2017-Feb-24 14:33N 34°32' E 135°22'0 0.0
2017-Feb-24 13:33N 34°32' E 135°22'0 0.0
2017-Feb-24 12:33N 34°32' E 135°22'0 0.0
2017-Feb-24 11:33N 34°32' E 135°22'0 0.0
2017-Feb-24 10:21N 34°32' E 135°22'0 0.0
2017-Feb-24 09:33N 34°32' E 135°22'0 0.0
2017-Feb-24 08:27N 34°32' E 135°22'0 0.0
2017-Feb-24 07:03N 34°32' E 135°22'0 0.0
2017-Feb-24 05:33N 34°32' E 135°22'0 0.0
2017-Feb-24 04:27N 34°32' E 135°22'0 0.0
2017-Feb-24 03:21N 34°32' E 135°22'4 4.9
2017-Feb-24 02:33N 34°35' E 135°26'0 0.3
2017-Feb-24 01:31N 34°34' E 135°26'0 0.0
2017-Feb-24 00:31N 34°34' E 135°26'0 0.0
2017-Feb-23 23:33N 34°34' E 135°26'6 6.3
2017-Feb-23 22:33N 34°33' E 135°18'1211.4
2017-Feb-23 21:32N 34°25' E 135°08'1211.4
2017-Feb-23 20:29N 34°15' E 134°60'1011.2
2017-Feb-23 19:33N 34°05' E 135°01'  
2017-Feb-21 06:25N 34°03' E 134°59'2412.1
2017-Feb-21 04:25N 34°27' E 135°07'1112.7
2017-Feb-21 03:33N 34°35' E 135°16'6 6.2
2017-Feb-21 02:33N 34°39' E 135°21'0 0.0
2017-Feb-21 01:33N 34°39' E 135°21'0 0.0
2017-Feb-21 00:33N 34°39' E 135°21'0 0.0
2017-Feb-20 23:33N 34°39' E 135°21'0 0.0
2017-Feb-20 22:32N 34°39' E 135°21'0 0.1
2017-Feb-20 21:33N 34°39' E 135°21'0 0.0
2017-Feb-20 20:33N 34°39' E 135°21'0 0.1
2017-Feb-20 19:33N 34°39' E 135°21'0 0.0
2017-Feb-20 18:32N 34°39' E 135°21'0 0.0
2017-Feb-20 17:33N 34°39' E 135°21'0 0.0
2017-Feb-20 16:33N 34°39' E 135°21'0 0.0
2017-Feb-20 15:33N 34°39' E 135°21'0 0.0
2017-Feb-20 14:33N 34°39' E 135°21'0 0.0
2017-Feb-20 13:33N 34°39' E 135°21'0 0.0
2017-Feb-20 12:33N 34°39' E 135°21'0 0.0
2017-Feb-20 11:33N 34°39' E 135°21'0 0.1
2017-Feb-20 10:33N 34°39' E 135°21'0 0.0
2017-Feb-20 09:33N 34°39' E 135°21'0 0.0
2017-Feb-20 08:33N 34°39' E 135°21'0 0.0
2017-Feb-20 07:33N 34°39' E 135°21'0 0.0
2017-Feb-20 06:32N 34°39' E 135°21'0 0.1
2017-Feb-20 05:33N 34°39' E 135°21'0 0.1
2017-Feb-20 04:33N 34°39' E 135°21'0 0.0
2017-Feb-20 03:33N 34°39' E 135°21'5 4.5
2017-Feb-20 02:33N 34°36' E 135°25'2 1.5
2017-Feb-20 01:22N 34°34' E 135°26'0 0.0
2017-Feb-20 00:22N 34°34' E 135°26'0 0.0
2017-Feb-19 23:22N 34°34' E 135°26'3 3.1
2017-Feb-19 22:32N 34°36' E 135°23'0 0.0
2017-Feb-19 21:08N 34°36' E 135°23'0 0.1
2017-Feb-19 20:14N 34°36' E 135°23'0 0.0
2017-Feb-19 19:32N 34°36' E 135°23'0 0.0
2017-Feb-19 17:32N 34°36' E 135°23'0 0.0
2017-Feb-19 16:32N 34°36' E 135°23'0 0.0
2017-Feb-19 15:32N 34°36' E 135°23'0 0.0
2017-Feb-19 14:26N 34°36' E 135°23'0 0.0
2017-Feb-19 13:14N 34°36' E 135°23'0 0.0
2017-Feb-19 12:26N 34°36' E 135°23'0 0.0
2017-Feb-19 11:20N 34°36' E 135°23'2 2.8
2017-Feb-19 10:33N 34°34' E 135°21'1211.9
2017-Feb-19 09:31N 34°26' E 135°10'1111.6
2017-Feb-19 08:32N 34°18' E 135°00'1111.0
2017-Feb-19 07:33N 34°07' E 135°01'228 9.0
2017-Feb-18 06:21N 35°02' E 139°30'911.7
2017-Feb-18 05:33N 35°06' E 139°40'1111.0
2017-Feb-18 04:33N 35°16' E 139°46'1010.2
2017-Feb-18 03:33N 35°26' E 139°45'1212.2
2017-Feb-18 02:33N 35°32' E 139°58'5 5.2
2017-Feb-18 01:31N 35°33' E 140°05'0 0.0
2017-Feb-18 00:19N 35°33' E 140°05'0 0.0
2017-Feb-17 23:28N 35°33' E 140°05'0 0.0
2017-Feb-17 22:28N 35°33' E 140°05'1 0.1
2017-Feb-17 07:33N 35°33' E 140°05'1111.5
2017-Feb-17 06:33N 35°28' E 139°52'1211.8
2017-Feb-17 05:33N 35°19' E 139°44'1111.2
2017-Feb-17 04:33N 35°07' E 139°46'1312.3
2017-Feb-17 03:32N 34°59' E 139°34'  

Dump ship's entire track history